logo
Search for airport 
image banner adimage banner adimage banner ad
image banner ad

FAOL - Othawa

Located in Otthawa, South Africa

ICAO - FAOL, IATA -

Data provided by Airmate  

General information

Coordinates: S24°45'33" E31°24'20"
Elevation is 1253 feet MSL.
 
View others Airports in Limpopo

Operational data

Special qualification required
Current time UTC:
Current local time:
METAR: FAKN 171700Z AUTO 04006KT //// // ////// 16/06 Q1024
TAF: TAF FAKN 170900Z 1710/1718 VRB03KT CAVOK TX22/1712Z TN16/1718Z FM171200 04007KT CAVOK
View NOTAMs / SUP AIP / TFR affecting this airport [VIEW]
Communications frequencies: [VIEW]

Runways:

RWY identifierQFULength (ft)Width (ft)SurfaceLDA (ft)
02145°426549SAND
20325°426549SAND

Airport contact information

Address: Otthawa South Africa

Satellite view of FAOL